Time;durP1;ratioP1;P1;durP2;ratioP2;P2;SDS_P1;SDS_P2;PMS_P1;PMS_P2;Temp;Humidity;BMP_temperature;BMP_pressure;BME280_temperature;BME280_humidity;BME280_pressure;Samples;Min_cycle;Max_cycle;Signal;HPM_P1;HPM_P2
2021/01/23 00:00:49;;;;;;;51.42;26.55;;;0.50;99.90;;;;;;4128130;28;20053;-76
2021/01/23 00:02:49;;;;;;;54.55;27.60;;;0.60;99.90;;;;;;4113648;28;20497;-76
2021/01/23 00:04:50;;;;;;;54.15;29.58;;;0.60;99.90;;;;;;4113791;28;20050;-76
2021/01/23 00:06:51;;;;;;;59.47;27.25;;;0.60;99.90;;;;;;4112145;28;20701;-76
2021/01/23 00:08:51;;;;;;;54.35;27.05;;;0.60;99.90;;;;;;4112418;28;20062;-76
2021/01/23 00:10:52;;;;;;;52.63;27.45;;;0.50;99.90;;;;;;4113674;28;20035;-77
2021/01/23 00:12:52;;;;;;;52.70;27.95;;;0.50;99.90;;;;;;4113506;28;20030;-76
2021/01/23 00:14:53;;;;;;;55.67;27.88;;;0.50;99.90;;;;;;4112265;28;20027;-77
2021/01/23 00:16:53;;;;;;;61.80;30.63;;;0.40;99.90;;;;;;4113546;28;20133;-77
2021/01/23 00:18:54;;;;;;;64.90;30.58;;;0.40;99.90;;;;;;4111952;28;20457;-77
2021/01/23 00:20:55;;;;;;;93.07;46.13;;;0.40;99.90;;;;;;4111928;28;20031;-77
2021/01/23 00:22:55;;;;;;;73.35;41.50;;;0.30;99.90;;;;;;4113214;28;20035;-77
2021/01/23 00:24:56;;;;;;;56.05;29.20;;;0.30;99.90;;;;;;4112344;28;20455;-76
2021/01/23 00:26:56;;;;;;;45.05;26.02;;;0.30;99.90;;;;;;4112010;28;20459;-76
2021/01/23 00:28:57;;;;;;;47.67;24.75;;;0.30;99.90;;;;;;4110433;28;20031;-76
2021/01/23 00:30:57;;;;;;;45.72;27.60;;;0.40;99.90;;;;;;4110481;28;20706;-76
2021/01/23 00:32:58;;;;;;;44.75;27.20;;;0.40;99.90;;;;;;4111880;28;20031;-76
2021/01/23 00:34:58;;;;;;;52.38;29.02;;;0.40;99.90;;;;;;4112157;28;20349;-76
2021/01/23 00:36:59;;;;;;;138.73;71.85;;;0.40;99.90;;;;;;4113034;28;20031;-76
2021/01/23 00:39:00;;;;;;;57.20;28.85;;;0.40;99.90;;;;;;4112927;28;20102;-76
2021/01/23 00:41:00;;;;;;;50.53;27.85;;;0.40;99.90;;;;;;4111845;28;20027;-76
2021/01/23 00:43:01;;;;;;;42.08;25.45;;;0.40;99.90;;;;;;4111573;28;20419;-76
2021/01/23 00:45:02;;;;;;;39.55;24.73;;;0.30;99.90;;;;;;4111739;28;20031;-76
2021/01/23 00:47:02;;;;;;;50.50;24.85;;;0.30;99.90;;;;;;4111965;28;20034;-76
2021/01/23 00:49:03;;;;;;;52.13;25.17;;;0.30;99.90;;;;;;4111521;28;20425;-75
2021/01/23 00:51:04;;;;;;;50.83;26.02;;;0.30;99.90;;;;;;4111589;28;20118;-76
2021/01/23 00:53:04;;;;;;;46.42;25.35;;;0.20;99.90;;;;;;4117622;28;20441;-76
2021/01/23 00:55:06;;;;;;;44.88;23.73;;;0.20;99.90;;;;;;4111070;28;20031;-76
2021/01/23 00:57:06;;;;;;;54.75;25.20;;;0.30;99.90;;;;;;4112999;28;20029;-77
2021/01/23 00:59:07;;;;;;;51.45;24.58;;;0.30;99.90;;;;;;4108200;28;20106;-77
2021/01/23 01:01:08;;;;;;;45.08;23.95;;;0.30;99.90;;;;;;4102737;28;20027;-76
2021/01/23 01:03:08;;;;;;;45.15;24.38;;;0.30;99.90;;;;;;4110117;28;20035;-77
2021/01/23 01:05:09;;;;;;;53.97;24.70;;;0.30;99.90;;;;;;4110148;28;20019;-77
2021/01/23 01:07:10;;;;;;;54.90;27.15;;;0.30;99.90;;;;;;4109820;28;20023;-77
2021/01/23 01:09:10;;;;;;;48.63;24.33;;;0.40;99.90;;;;;;4111335;28;20582;-74
2021/01/23 01:11:11;;;;;;;47.70;24.40;;;0.30;99.90;;;;;;4107081;28;20046;-76
2021/01/23 01:13:13;;;;;;;42.10;22.98;;;0.30;99.90;;;;;;4111333;28;20073;-77
2021/01/23 01:15:13;;;;;;;45.97;25.33;;;0.20;99.90;;;;;;4142529;28;20736;-75
2021/01/23 01:17:14;;;;;;;48.97;24.83;;;0.30;99.90;;;;;;4111454;28;20090;-77
2021/01/23 01:19:14;;;;;;;47.67;22.50;;;0.20;99.90;;;;;;4111607;28;20023;-77
2021/01/23 01:21:15;;;;;;;45.58;23.85;;;0.20;99.90;;;;;;4112641;28;20027;-75
2021/01/23 01:23:16;;;;;;;43.35;23.20;;;0.30;99.90;;;;;;4127443;28;20050;-76
2021/01/23 01:25:16;;;;;;;49.35;24.60;;;0.30;99.90;;;;;;4112947;28;20042;-76
2021/01/23 01:27:17;;;;;;;44.58;24.13;;;0.30;99.90;;;;;;4112849;28;20038;-76
2021/01/23 01:29:17;;;;;;;42.35;22.48;;;0.30;99.90;;;;;;4112072;28;20042;-76
2021/01/23 01:31:19;;;;;;;54.42;24.73;;;0.30;99.90;;;;;;4112637;28;20070;-76
2021/01/23 01:33:20;;;;;;;46.03;23.55;;;0.30;99.90;;;;;;4110134;28;20464;-76
2021/01/23 01:35:21;;;;;;;43.75;22.70;;;0.30;99.90;;;;;;4113069;28;20051;-76
2021/01/23 01:37:22;;;;;;;41.15;22.08;;;0.30;99.90;;;;;;4127616;28;20533;-76
2021/01/23 01:39:22;;;;;;;40.90;21.58;;;0.30;99.90;;;;;;4112873;28;20135;-75
2021/01/23 01:41:23;;;;;;;46.03;23.23;;;0.40;99.90;;;;;;4111489;28;20030;-76
2021/01/23 01:43:23;;;;;;;42.03;22.45;;;0.40;99.90;;;;;;4112628;28;20034;-75
2021/01/23 01:45:24;;;;;;;41.92;21.23;;;0.40;99.90;;;;;;4111107;28;20493;-75
2021/01/23 01:47:25;;;;;;;42.42;22.63;;;0.40;99.90;;;;;;4112916;28;20038;-76
2021/01/23 01:49:27;;;;;;;46.42;22.98;;;0.50;99.90;;;;;;4112378;28;20372;-76
2021/01/23 01:51:28;;;;;;;41.33;24.58;;;0.50;99.90;;;;;;4113622;28;20114;-76
2021/01/23 01:53:29;;;;;;;42.75;22.60;;;0.50;99.90;;;;;;4114522;28;20040;-76
2021/01/23 01:55:34;;;;;;;50.80;23.63;;;0.40;99.90;;;;;;4115918;28;20181;-76
2021/01/23 01:57:35;;;;;;;39.05;21.33;;;0.40;99.90;;;;;;4114179;28;20075;-76
2021/01/23 01:59:36;;;;;;;43.85;22.45;;;0.40;99.90;;;;;;4114135;28;20065;-76
2021/01/23 02:01:37;;;;;;;39.08;23.42;;;0.40;99.90;;;;;;4114448;28;20042;-77
2021/01/23 02:03:57;;;;;;;48.97;23.85;;;0.40;99.90;;;;;;4113393;28;20030;-77
2021/01/23 02:06:33;;;;;;;42.20;23.23;;;0.40;99.90;;;;;;4115351;28;20483;-76
2021/01/23 02:08:51;;;;;;;40.83;23.38;;;0.40;99.90;;;;;;4111178;28;20506;-77
2021/01/23 02:11:14;;;;;;;51.03;22.98;;;0.40;99.90;;;;;;4128770;28;20026;-77
2021/01/23 02:13:40;;;;;;;48.55;25.33;;;0.40;99.90;;;;;;4113715;28;20342;-77
2021/01/23 02:15:47;;;;;;;47.15;24.65;;;0.50;99.90;;;;;;4112577;28;20019;-77
2021/01/23 02:18:03;;;;;;;51.85;26.42;;;0.50;99.90;;;;;;4113663;28;20023;-77
2021/01/23 02:20:16;;;;;;;54.38;25.98;;;0.60;99.90;;;;;;4112071;28;20397;-77
2021/01/23 02:22:50;;;;;;;41.13;25.67;;;0.60;99.90;;;;;;4128851;28;20038;-76
2021/01/23 02:24:52;;;;;;;48.20;25.45;;;0.70;99.90;;;;;;4129990;28;20042;-77
2021/01/23 02:26:59;;;;;;;47.75;27.25;;;0.70;99.90;;;;;;4114704;28;20106;-74
2021/01/23 02:29:10;;;;;;;51.40;28.35;;;0.80;99.90;;;;;;4113787;28;20038;-77
2021/01/23 02:31:14;;;;;;;50.42;26.55;;;0.90;99.90;;;;;;4113151;28;20387;-77
2021/01/23 02:33:17;;;;;;;52.70;27.42;;;0.90;99.90;;;;;;4108467;28;20491;-77
2021/01/23 02:35:18;;;;;;;45.88;26.38;;;0.90;99.90;;;;;;4113760;28;20107;-77
2021/01/23 02:37:20;;;;;;;50.92;28.77;;;0.90;99.90;;;;;;4113545;28;20023;-77
2021/01/23 02:39:23;;;;;;;50.95;27.10;;;0.90;99.90;;;;;;4113342;28;20031;-77
2021/01/23 02:41:24;;;;;;;49.33;28.30;;;0.90;99.90;;;;;;4112388;28;20027;-77
2021/01/23 02:43:25;;;;;;;51.75;28.80;;;1.00;99.90;;;;;;4114960;28;20078;-77
2021/01/23 02:45:25;;;;;;;62.10;28.58;;;1.00;99.90;;;;;;4127774;28;20027;-77
2021/01/23 02:47:26;;;;;;;49.42;27.45;;;1.00;99.90;;;;;;4114884;28;20393;-76
2021/01/23 02:49:27;;;;;;;50.80;29.65;;;1.00;99.90;;;;;;4113267;28;20702;-76
2021/01/23 02:52:02;;;;;;;62.75;29.38;;;1.10;99.90;;;;;;4114755;28;20471;-77
2021/01/23 02:54:19;;;;;;;52.83;30.88;;;1.20;99.90;;;;;;4128686;28;20505;-77
2021/01/23 02:56:24;;;;;;;50.47;29.20;;;1.20;99.90;;;;;;4097267;28;20082;-77
2021/01/23 02:58:30;;;;;;;50.58;27.08;;;1.30;99.90;;;;;;4097202;28;20518;-77
2021/01/23 03:00:32;;;;;;;51.75;29.10;;;1.30;99.90;;;;;;4098693;28;20031;-77
2021/01/23 03:02:38;;;;;;;44.65;25.25;;;1.40;99.90;;;;;;4097530;28;20028;-76
2021/01/23 03:04:40;;;;;;;52.20;26.65;;;1.50;99.90;;;;;;4098731;28;20082;-76
2021/01/23 03:06:41;;;;;;;48.85;26.48;;;1.60;99.90;;;;;;4097255;28;20438;-76
2021/01/23 03:08:44;;;;;;;45.15;26.35;;;1.70;99.90;;;;;;4098645;28;20118;-76
2021/01/23 03:10:46;;;;;;;45.70;25.38;;;1.70;99.90;;;;;;4097359;28;20035;-76
2021/01/23 03:12:47;;;;;;;50.08;27.65;;;1.80;99.90;;;;;;4096821;28;20503;-76
2021/01/23 03:14:48;;;;;;;44.33;26.52;;;1.80;99.90;;;;;;4097495;28;20122;-76
2021/01/23 03:16:50;;;;;;;46.10;25.48;;;1.90;99.90;;;;;;4098546;28;20027;-76
2021/01/23 03:18:50;;;;;;;48.95;25.25;;;1.90;99.90;;;;;;4096870;28;20118;-76
2021/01/23 03:20:51;;;;;;;42.70;22.67;;;1.90;99.90;;;;;;4110583;28;20027;-76
2021/01/23 03:22:52;;;;;;;39.97;24.55;;;2.00;99.90;;;;;;4113022;28;20022;-76
2021/01/23 03:24:52;;;;;;;48.92;25.23;;;2.10;99.90;;;;;;4113987;28;20085;-76
2021/01/23 03:26:53;;;;;;;49.00;24.15;;;2.10;99.90;;;;;;4113988;28;20034;-76
2021/01/23 03:28:54;;;;;;;52.15;24.88;;;2.10;99.90;;;;;;4114094;28;20113;-76
2021/01/23 03:30:54;;;;;;;30.85;20.63;;;2.20;99.90;;;;;;4113817;28;20031;-76
2021/01/23 03:32:56;;;;;;;34.63;19.20;;;2.20;99.90;;;;;;4110407;28;20078;-76
2021/01/23 03:34:56;;;;;;;39.53;23.23;;;2.30;99.90;;;;;;4099849;28;20031;-76
2021/01/23 03:36:57;;;;;;;43.60;20.25;;;2.30;99.90;;;;;;4113752;28;20054;-76
2021/01/23 03:38:58;;;;;;;37.78;21.88;;;2.30;99.90;;;;;;4112689;28;20470;-76
2021/01/23 03:40:58;;;;;;;34.58;20.48;;;2.30;99.90;;;;;;4112533;28;20019;-76
2021/01/23 03:42:59;;;;;;;41.95;22.85;;;2.30;99.90;;;;;;4144533;28;20084;-76
2021/01/23 03:45:00;;;;;;;39.38;21.90;;;2.40;99.90;;;;;;4114134;28;20376;-76
2021/01/23 03:47:00;;;;;;;43.42;23.27;;;2.40;99.90;;;;;;4113919;28;20439;-76
2021/01/23 03:49:01;;;;;;;31.63;18.48;;;2.40;99.90;;;;;;4112020;28;20034;-76
2021/01/23 03:51:03;;;;;;;42.63;23.02;;;2.40;99.90;;;;;;4113441;28;20035;-75
2021/01/23 03:53:04;;;;;;;37.08;20.90;;;2.40;99.90;;;;;;4113577;28;20084;-75
2021/01/23 03:55:05;;;;;;;35.22;21.60;;;2.40;99.90;;;;;;4112079;28;20027;-75
2021/01/23 03:57:09;;;;;;;36.53;22.52;;;2.40;99.90;;;;;;4112305;28;20114;-75
2021/01/23 03:59:10;;;;;;;36.70;22.40;;;2.50;99.90;;;;;;4112313;28;20050;-76
2021/01/23 04:01:11;;;;;;;39.10;23.42;;;2.50;99.90;;;;;;4113587;28;20034;-76
2021/01/23 04:03:11;;;;;;;42.50;24.67;;;2.50;99.90;;;;;;4113833;28;20034;-75
2021/01/23 04:05:13;;;;;;;35.75;22.88;;;2.40;99.90;;;;;;4113499;28;20026;-75
2021/01/23 04:07:14;;;;;;;36.22;22.48;;;2.40;99.90;;;;;;4113547;28;20058;-75
2021/01/23 04:09:14;;;;;;;37.45;22.55;;;2.50;99.90;;;;;;4113696;28;20037;-75
2021/01/23 04:11:15;;;;;;;37.67;21.05;;;2.50;99.90;;;;;;4113544;28;20027;-75
2021/01/23 04:13:15;;;;;;;40.58;22.77;;;2.50;99.90;;;;;;4113063;28;20133;-76
2021/01/23 04:15:16;;;;;;;37.20;21.75;;;2.50;99.90;;;;;;4113296;28;20105;-76
2021/01/23 04:17:17;;;;;;;38.28;20.90;;;2.50;99.90;;;;;;4112313;28;20053;-76
2021/01/23 04:19:18;;;;;;;39.65;20.88;;;2.50;99.90;;;;;;4111824;28;20094;-76
2021/01/23 04:21:19;;;;;;;37.42;21.35;;;2.40;99.90;;;;;;4111955;28;20498;-77
2021/01/23 04:23:19;;;;;;;35.17;21.88;;;2.40;99.90;;;;;;4111960;28;20023;-75
2021/01/23 04:25:20;;;;;;;39.60;20.50;;;2.40;99.90;;;;;;4111011;28;20035;-76
2021/01/23 04:27:21;;;;;;;26.83;20.33;;;2.40;99.90;;;;;;4112133;28;20122;-76
2021/01/23 04:29:21;;;;;;;33.72;19.95;;;2.40;99.90;;;;;;4110899;28;20118;-76
2021/01/23 04:31:22;;;;;;;33.53;18.90;;;2.50;99.90;;;;;;4110591;28;20414;-76
2021/01/23 04:33:22;;;;;;;36.42;20.23;;;2.50;99.90;;;;;;4111731;28;20045;-76
2021/01/23 04:35:23;;;;;;;35.67;19.10;;;2.50;99.90;;;;;;4111566;28;20034;-75
2021/01/23 04:37:24;;;;;;;32.80;19.08;;;2.40;99.90;;;;;;4110518;28;20030;-76
2021/01/23 04:39:24;;;;;;;34.30;19.13;;;2.40;99.90;;;;;;4111912;28;20546;-75
2021/01/23 04:41:29;;;;;;;25.55;17.23;;;2.40;99.90;;;;;;4110846;28;20035;-76
2021/01/23 04:43:30;;;;;;;30.85;18.08;;;2.40;99.90;;;;;;4112065;28;20023;-76
2021/01/23 04:45:30;;;;;;;28.10;17.00;;;2.40;99.90;;;;;;4112465;28;20035;-77
2021/01/23 04:47:31;;;;;;;29.15;17.23;;;2.40;99.90;;;;;;4113316;28;20086;-76
2021/01/23 04:49:33;;;;;;;37.40;18.42;;;2.40;99.90;;;;;;4113044;28;20034;-76
2021/01/23 04:51:34;;;;;;;26.27;18.05;;;2.40;99.90;;;;;;4112931;28;20030;-75
2021/01/23 04:53:35;;;;;;;25.17;15.73;;;2.40;99.90;;;;;;4111628;28;20031;-76
2021/01/23 04:55:35;;;;;;;22.73;16.98;;;2.40;99.90;;;;;;4113319;28;20027;-76
2021/01/23 04:57:36;;;;;;;25.27;17.02;;;2.40;99.90;;;;;;4111742;28;20066;-76
2021/01/23 04:59:37;;;;;;;21.75;15.00;;;2.40;99.90;;;;;;4113049;28;20643;-76
2021/01/23 05:01:37;;;;;;;23.15;15.65;;;2.50;99.90;;;;;;4105290;28;20043;-76
2021/01/23 05:04:10;;;;;;;23.90;15.77;;;2.50;99.90;;;;;;4099202;28;20085;-76
2021/01/23 05:06:11;;;;;;;29.13;14.90;;;2.40;99.90;;;;;;4085432;28;20129;-76
2021/01/23 05:08:12;;;;;;;30.75;15.80;;;2.40;99.90;;;;;;4105426;28;20380;-76
2021/01/23 05:10:24;;;;;;;30.55;15.35;;;2.40;99.90;;;;;;4109283;28;20697;-76
2021/01/23 05:12:39;;;;;;;26.08;15.57;;;2.40;99.90;;;;;;4109034;28;20027;-76
2021/01/23 05:14:52;;;;;;;27.65;15.88;;;2.40;99.90;;;;;;4109193;28;20061;-76
2021/01/23 05:16:52;;;;;;;22.73;14.65;;;2.40;99.90;;;;;;4107716;28;20054;-76
2021/01/23 05:19:01;;;;;;;20.73;14.25;;;2.40;99.90;;;;;;4107968;28;20023;-76
2021/01/23 05:21:08;;;;;;;25.10;16.30;;;2.40;99.90;;;;;;4125305;28;20045;-76
2021/01/23 05:23:22;;;;;;;27.73;15.00;;;2.40;99.90;;;;;;4126763;28;20030;-76
2021/01/23 05:25:33;;;;;;;24.45;15.35;;;2.40;99.90;;;;;;4125324;28;20022;-76
2021/01/23 05:27:44;;;;;;;24.50;15.68;;;2.40;99.90;;;;;;4144761;28;20038;-76
2021/01/23 05:29:59;;;;;;;23.58;16.30;;;2.50;99.90;;;;;;4131844;28;20426;-76
2021/01/23 05:32:16;;;;;;;23.70;14.88;;;2.50;99.90;;;;;;4130591;28;20086;-76
2021/01/23 05:34:30;;;;;;;26.65;15.93;;;2.60;99.90;;;;;;4117322;28;20055;-77
2021/01/23 05:36:40;;;;;;;19.30;11.93;;;2.70;99.90;;;;;;4120630;28;20026;-76
2021/01/23 05:38:45;;;;;;;23.40;14.02;;;2.70;99.90;;;;;;4127703;28;20019;-76
2021/01/23 05:40:46;;;;;;;22.70;13.38;;;2.70;99.90;;;;;;4127208;28;20041;-76
2021/01/23 05:42:46;;;;;;;23.38;14.40;;;2.70;99.90;;;;;;4125552;28;20027;-77
2021/01/23 05:45:07;;;;;;;24.27;14.65;;;2.70;99.90;;;;;;4142759;28;20581;-76
2021/01/23 05:47:27;;;;;;;26.40;14.77;;;2.70;99.90;;;;;;4127832;28;20058;-76
2021/01/23 05:49:27;;;;;;;21.15;12.93;;;2.60;99.90;;;;;;4125934;28;20047;-76
2021/01/23 05:51:28;;;;;;;29.90;15.88;;;2.50;99.90;;;;;;4128441;28;20058;-76
2021/01/23 05:53:32;;;;;;;31.42;14.70;;;2.50;99.90;;;;;;4127226;28;20042;-76
2021/01/23 05:55:32;;;;;;;24.90;15.15;;;2.50;99.90;;;;;;4129292;28;20413;-76
2021/01/23 05:57:33;;;;;;;27.45;14.75;;;2.50;99.90;;;;;;4143916;28;20089;-76
2021/01/23 05:59:34;;;;;;;26.80;14.93;;;2.50;99.90;;;;;;4125771;28;20477;-76
2021/01/23 06:01:38;;;;;;;26.13;14.88;;;2.40;99.90;;;;;;4127994;28;20042;-77
2021/01/23 06:03:40;;;;;;;25.10;15.35;;;2.40;99.90;;;;;;4108475;28;20100;-77
2021/01/23 06:05:41;;;;;;;22.83;13.48;;;2.40;99.90;;;;;;4113515;28;20185;-76
2021/01/23 06:07:46;;;;;;;20.13;13.07;;;2.40;99.90;;;;;;4114489;28;20475;-77
2021/01/23 06:09:47;;;;;;;23.23;14.35;;;2.40;99.90;;;;;;4116717;28;20118;-76
2021/01/23 06:11:47;;;;;;;27.05;14.88;;;2.40;99.90;;;;;;4132374;28;20046;-77
2021/01/23 06:13:56;;;;;;;26.77;15.10;;;2.40;99.90;;;;;;4115627;28;20706;-77
2021/01/23 06:15:56;;;;;;;24.70;15.10;;;2.50;99.90;;;;;;4100242;28;20069;-77
2021/01/23 06:17:58;;;;;;;26.52;14.27;;;2.50;99.90;;;;;;4099300;28;20494;-76
2021/01/23 06:19:58;;;;;;;24.20;14.35;;;2.50;99.90;;;;;;4098887;28;20031;-76
2021/01/23 06:21:59;;;;;;;25.15;15.80;;;2.60;99.90;;;;;;4098950;28;20527;-76
2021/01/23 06:23:59;;;;;;;27.67;15.52;;;2.60;99.90;;;;;;4087801;28;20035;-77
2021/01/23 06:26:02;;;;;;;23.92;14.23;;;2.60;99.90;;;;;;4092672;28;20050;-77
2021/01/23 06:28:02;;;;;;;24.35;14.57;;;2.70;99.90;;;;;;4107825;28;20031;-77
2021/01/23 06:30:26;;;;;;;24.83;13.00;;;2.80;99.90;;;;;;4099999;28;20028;-77
2021/01/23 06:32:28;;;;;;;26.98;15.00;;;2.80;99.90;;;;;;4100776;28;20472;-77
2021/01/23 06:34:28;;;;;;;26.55;14.82;;;2.80;99.90;;;;;;4100569;28;20027;-77
2021/01/23 06:36:29;;;;;;;32.50;15.80;;;2.90;99.90;;;;;;4100101;28;20027;-77
2021/01/23 06:38:30;;;;;;;24.48;14.57;;;2.90;99.90;;;;;;4099652;28;20143;-77
2021/01/23 06:40:31;;;;;;;19.70;10.95;;;3.00;99.90;;;;;;4098581;28;20031;-77
2021/01/23 06:42:34;;;;;;;20.25;12.70;;;3.00;99.90;;;;;;4099101;28;20055;-77
2021/01/23 06:44:35;;;;;;;21.88;13.70;;;3.00;99.90;;;;;;4099546;28;20027;-77
2021/01/23 06:46:38;;;;;;;27.55;14.52;;;3.00;99.90;;;;;;4098678;28;20031;-77
2021/01/23 06:49:01;;;;;;;26.83;14.32;;;3.00;99.90;;;;;;4098582;28;20028;-77
2021/01/23 06:51:01;;;;;;;26.38;12.35;;;3.00;99.90;;;;;;4128811;28;20034;-77
2021/01/23 06:53:04;;;;;;;23.08;12.82;;;3.10;99.90;;;;;;4099823;28;20066;-77
2021/01/23 06:55:05;;;;;;;16.67;11.63;;;3.10;99.90;;;;;;4099893;28;20054;-77
2021/01/23 06:57:06;;;;;;;22.92;12.55;;;3.20;99.90;;;;;;4099793;28;20660;-77
2021/01/23 06:59:07;;;;;;;23.15;13.93;;;3.20;99.90;;;;;;4099963;28;20038;-78
2021/01/23 07:01:15;;;;;;;21.67;13.63;;;3.20;99.90;;;;;;4098405;28;21011;-77
2021/01/23 07:03:17;;;;;;;20.40;13.38;;;3.30;99.90;;;;;;4100402;28;20046;-77
2021/01/23 07:05:17;;;;;;;25.58;15.18;;;3.30;99.90;;;;;;4099986;28;20621;-77
2021/01/23 07:07:18;;;;;;;18.38;13.27;;;3.30;99.90;;;;;;4098297;28;20035;-76
2021/01/23 07:09:19;;;;;;;17.77;13.02;;;3.20;99.90;;;;;;4099768;28;20110;-76
2021/01/23 07:11:22;;;;;;;20.92;13.02;;;3.20;99.90;;;;;;4099911;28;20031;-76
2021/01/23 07:13:23;;;;;;;;;;;3.10;99.90;;;;;;4100827;28;20126;-76
2021/01/23 07:15:24;;;;;;;26.90;14.05;;;2.90;99.90;;;;;;4128877;28;20343;-76
2021/01/23 07:17:24;;;;;;;17.52;12.32;;;2.80;99.90;;;;;;4098613;28;20390;-77
2021/01/23 07:19:28;;;;;;;24.98;13.55;;;2.70;99.90;;;;;;4097110;28;20118;-76
2021/01/23 07:21:30;;;;;;;;;;;2.70;99.90;;;;;;4098732;28;20118;-77
2021/01/23 07:23:31;;;;;;;24.88;13.70;;;2.70;99.90;;;;;;4099926;28;19915;-76
2021/01/23 07:25:32;;;;;;;25.50;14.88;;;2.70;99.90;;;;;;4100027;28;20117;-76
2021/01/23 07:27:37;;;;;;;21.83;13.55;;;2.70;99.90;;;;;;4100034;28;20034;-76
2021/01/23 07:29:38;;;;;;;22.70;13.98;;;2.90;99.90;;;;;;4099168;28;20418;-77
2021/01/23 07:31:39;;;;;;;20.70;14.07;;;3.00;99.90;;;;;;4096230;28;20031;-76
2021/01/23 07:33:40;;;;;;;19.80;13.68;;;3.10;99.90;;;;;;4096768;28;20414;-76
2021/01/23 07:35:40;;;;;;;24.63;15.20;;;3.20;99.90;;;;;;4096001;28;20054;-76
2021/01/23 07:37:50;;;;;;;21.55;14.20;;;3.20;99.90;;;;;;4100911;28;20023;-77
2021/01/23 07:39:51;;;;;;;23.80;12.93;;;3.20;99.90;;;;;;4102669;28;20062;-77
2021/01/23 07:41:57;;;;;;;22.65;13.48;;;3.30;99.90;;;;;;4101390;28;20027;-77
2021/01/23 07:44:00;;;;;;;16.42;11.27;;;3.30;99.90;;;;;;4102322;28;20356;-77
2021/01/23 07:46:00;;;;;;;18.48;11.30;;;3.30;99.90;;;;;;4101670;28;20069;-76
2021/01/23 07:48:04;;;;;;;22.85;13.35;;;3.30;99.90;;;;;;4100799;28;20158;-76
2021/01/23 07:50:13;;;;;;;21.00;13.05;;;3.30;99.90;;;;;;4102285;28;20070;-76
2021/01/23 07:52:14;;;;;;;21.35;12.73;;;3.30;99.90;;;;;;4100836;28;20083;-77
2021/01/23 07:54:15;;;;;;;23.25;13.10;;;3.30;99.90;;;;;;4100162;28;20495;-77
2021/01/23 07:56:17;;;;;;;21.48;12.98;;;3.20;99.90;;;;;;4100444;28;20039;-76
2021/01/23 07:58:18;;;;;;;22.65;14.25;;;3.10;99.90;;;;;;4102706;28;20513;-77
2021/01/23 08:00:22;;;;;;;18.95;13.30;;;3.20;99.90;;;;;;4098892;28;20065;-77
2021/01/23 08:02:23;;;;;;;29.38;14.00;;;3.20;99.90;;;;;;4098533;28;20031;-77
2021/01/23 08:04:33;;;;;;;22.88;13.70;;;3.20;99.90;;;;;;4085082;28;20039;-77
2021/01/23 08:06:33;;;;;;;22.15;12.98;;;3.20;99.90;;;;;;4095939;28;20579;-76
2021/01/23 08:08:36;;;;;;;20.17;12.32;;;3.30;99.90;;;;;;4097861;28;20032;-77
2021/01/23 08:10:37;;;;;;;26.73;14.40;;;3.30;99.90;;;;;;4103392;28;20038;-77
2021/01/23 08:12:56;;;;;;;20.40;13.82;;;3.40;99.90;;;;;;4094997;28;20039;-77
2021/01/23 08:14:56;;;;;;;23.98;13.70;;;3.40;99.90;;;;;;4110808;28;20514;-77
2021/01/23 08:16:58;;;;;;;25.00;13.35;;;3.40;99.90;;;;;;4106784;28;20089;-77
2021/01/23 08:19:06;;;;;;;22.50;14.05;;;3.50;99.90;;;;;;4106489;28;20031;-77
2021/01/23 08:21:16;;;;;;;23.65;13.23;;;3.50;99.90;;;;;;4106681;28;20165;-77
2021/01/23 08:23:18;;;;;;;20.50;12.18;;;3.50;99.90;;;;;;4105326;28;20059;-77
2021/01/23 08:25:26;;;;;;;21.10;12.80;;;3.60;99.90;;;;;;4106585;28;20035;-77
2021/01/23 08:27:29;;;;;;;17.08;10.45;;;3.60;99.90;;;;;;4105928;28;20035;-76
2021/01/23 08:29:29;;;;;;;19.85;9.65;;;3.50;99.90;;;;;;4109076;28;20046;-77
2021/01/23 08:31:30;;;;;;;16.27;11.30;;;3.50;99.90;;;;;;4109622;28;20390;-77
2021/01/23 08:33:31;;;;;;;19.98;11.73;;;3.50;99.90;;;;;;4100922;28;20751;-77
2021/01/23 08:35:34;;;;;;;15.63;10.15;;;3.40;99.90;;;;;;4095727;28;21564;-78
2021/01/23 08:37:35;;;;;;;20.17;13.38;;;3.40;99.90;;;;;;4094157;28;20038;-77
2021/01/23 08:39:44;;;;;;;16.92;12.85;;;3.40;99.90;;;;;;4082471;28;20051;-77
2021/01/23 08:41:44;;;;;;;26.00;12.02;;;3.40;99.90;;;;;;4084042;28;20059;-77
2021/01/23 08:43:45;;;;;;;19.73;12.32;;;3.50;99.90;;;;;;4095536;28;20035;-76
2021/01/23 08:45:46;;;;;;;20.90;11.98;;;3.50;99.90;;;;;;4095745;28;20036;-78
2021/01/23 08:47:47;;;;;;;22.30;12.13;;;3.50;99.90;;;;;;4083124;28;20424;-77
2021/01/23 08:49:47;;;;;;;17.95;10.95;;;3.40;99.90;;;;;;4096067;28;20137;-77
2021/01/23 08:51:49;;;;;;;24.63;12.80;;;3.40;99.90;;;;;;4081760;28;20023;-77
2021/01/23 08:53:50;;;;;;;23.83;13.65;;;3.50;99.90;;;;;;4090229;28;20039;-77
2021/01/23 08:55:51;;;;;;;18.55;11.95;;;3.50;99.90;;;;;;4088936;28;20119;-78
2021/01/23 08:57:51;;;;;;;17.98;11.38;;;3.50;99.90;;;;;;4096758;28;20051;-77
2021/01/23 08:59:52;;;;;;;16.92;11.80;;;3.50;99.90;;;;;;4097944;28;20039;-79
2021/01/23 09:01:55;;;;;;;18.13;11.75;;;3.60;99.90;;;;;;4102186;28;20046;-78
2021/01/23 09:03:56;;;;;;;;;;;3.60;99.90;;;;;;4099695;28;20387;-77
2021/01/23 09:05:57;;;;;;;15.10;11.63;;;3.60;99.90;;;;;;4098062;28;19914;-78
2021/01/23 09:07:57;;;;;;;16.17;11.13;;;3.70;99.90;;;;;;4099455;28;20036;-78
2021/01/23 09:09:58;;;;;;;16.00;10.88;;;3.70;99.90;;;;;;4100065;28;20027;-78
2021/01/23 09:11:59;;;;;;;19.52;11.02;;;3.80;99.90;;;;;;4098236;28;20040;-78
2021/01/23 09:13:59;;;;;;;12.35;10.98;;;3.90;99.90;;;;;;4094066;28;20051;-79
2021/01/23 09:16:00;;;;;;;13.15;9.70;;;4.10;99.90;;;;;;4088297;28;20032;-77
2021/01/23 09:18:00;;;;;;;13.57;10.15;;;4.30;99.90;;;;;;4084328;28;20032;-78
2021/01/23 09:20:02;;;;;;;19.08;9.77;;;4.50;99.90;;;;;;4099329;28;20114;-78
2021/01/23 09:22:02;;;;;;;15.30;9.27;;;4.70;99.90;;;;;;4115682;28;20038;-76
2021/01/23 09:24:03;;;;;;;10.15;9.00;;;4.80;99.90;;;;;;4105673;28;20028;-77
2021/01/23 09:26:04;;;;;;;13.05;8.25;;;4.80;99.90;;;;;;4115866;28;20081;-76
2021/01/23 09:28:04;;;;;;;14.85;7.82;;;4.90;99.90;;;;;;4116992;28;20027;-76
2021/01/23 09:30:06;;;;;;;15.93;9.05;;;5.10;99.90;;;;;;4107462;28;20019;-76
2021/01/23 09:32:07;;;;;;;13.65;9.50;;;5.20;99.90;;;;;;4102984;28;20455;-76
2021/01/23 09:34:08;;;;;;;11.85;8.48;;;5.20;99.90;;;;;;4113985;28;20041;-78
2021/01/23 09:36:08;;;;;;;11.10;8.15;;;5.40;99.90;;;;;;4102888;28;20023;-77
2021/01/23 09:38:09;;;;;;;11.88;9.07;;;5.60;99.90;;;;;;4112508;28;20122;-77
2021/01/23 09:40:10;;;;;;;12.27;7.78;;;5.60;99.90;;;;;;4098263;28;20089;-77
2021/01/23 09:42:11;;;;;;;12.32;6.53;;;5.70;99.90;;;;;;4106045;28;20031;-77
2021/01/23 09:44:11;;;;;;;11.63;7.80;;;5.70;99.90;;;;;;4100831;28;20427;-76
2021/01/23 09:46:12;;;;;;;12.82;7.78;;;5.80;99.90;;;;;;4115432;28;20042;-77
2021/01/23 09:48:12;;;;;;;9.20;6.95;;;5.90;99.90;;;;;;4102450;28;20023;-77
2021/01/23 09:50:17;;;;;;;15.52;8.35;;;5.90;99.90;;;;;;4102500;28;20493;-76
2021/01/23 09:52:19;;;;;;;14.75;8.32;;;5.50;99.90;;;;;;4107545;28;20032;-77
2021/01/23 09:54:19;;;;;;;13.05;8.43;;;5.40;99.90;;;;;;4106474;28;20077;-77
2021/01/23 09:56:21;;;;;;;16.13;8.73;;;5.40;99.90;;;;;;4121219;28;20564;-77
2021/01/23 09:58:22;;;;;;;10.93;6.88;;;5.50;99.90;;;;;;4102592;28;20034;-77
2021/01/23 10:00:23;;;;;;;10.82;8.15;;;5.60;99.90;;;;;;4114015;28;20038;-78
2021/01/23 10:02:24;;;;;;;9.77;7.43;;;5.70;99.90;;;;;;4097707;28;20049;-77
2021/01/23 10:04:25;;;;;;;12.32;8.15;;;5.80;99.90;;;;;;4129192;28;20030;-77
2021/01/23 10:06:25;;;;;;;8.38;7.47;;;6.00;99.90;;;;;;4097366;28;20086;-77
2021/01/23 10:08:26;;;;;;;11.13;8.68;;;5.90;99.90;;;;;;4107940;28;20038;-78
2021/01/23 10:10:29;;;;;;;13.70;8.32;;;5.70;99.90;;;;;;4115305;28;20362;-77
2021/01/23 10:12:32;;;;;;;13.15;9.20;;;5.50;99.90;;;;;;4117855;28;20031;-78
2021/01/23 10:14:32;;;;;;;11.85;8.18;;;5.50;99.90;;;;;;4120214;28;20424;-78
2021/01/23 10:16:33;;;;;;;12.23;8.15;;;5.30;99.90;;;;;;4120031;28;20035;-78
2021/01/23 10:18:35;;;;;;;13.10;7.88;;;5.40;99.90;;;;;;4123247;28;20031;-77
2021/01/23 10:20:38;;;;;;;13.77;8.02;;;5.50;99.90;;;;;;4123171;28;20026;-77
2021/01/23 10:22:39;;;;;;;11.38;7.60;;;5.70;99.90;;;;;;4123739;28;20022;-78
2021/01/23 10:24:39;;;;;;;9.02;8.07;;;5.90;99.90;;;;;;4119912;28;20046;-78
2021/01/23 10:26:40;;;;;;;13.95;7.50;;;5.90;99.90;;;;;;4121353;28;20103;-77
2021/01/23 10:28:41;;;;;;;14.60;7.05;;;6.00;99.90;;;;;;4129343;28;20026;-77
2021/01/23 10:30:41;;;;;;;15.30;7.00;;;6.00;99.90;;;;;;4130485;28;20022;-77
2021/01/23 10:32:42;;;;;;;11.25;7.32;;;6.00;99.90;;;;;;4128258;28;20033;-77